createdAt,value
2022-07-29T00:01:06.652Z,18.10
2022-07-29T00:04:03.570Z,18.30
2022-07-29T00:07:00.432Z,18.20
2022-07-29T00:09:57.397Z,18.30
2022-07-29T00:12:54.263Z,18.30
2022-07-29T00:15:52.220Z,18.20
2022-07-29T00:18:49.109Z,18.20
2022-07-29T00:21:45.982Z,18.30
2022-07-29T00:24:43.024Z,18.10
2022-07-29T00:27:40.428Z,18.00
2022-07-29T00:30:37.275Z,18.10
2022-07-29T00:33:34.165Z,18.30
2022-07-29T00:36:30.993Z,18.20
2022-07-29T00:39:27.855Z,18.20
2022-07-29T00:42:25.758Z,18.10
2022-07-29T00:45:23.198Z,18.00
2022-07-29T00:48:20.131Z,18.00
2022-07-29T00:51:16.991Z,18.00
2022-07-29T00:54:14.163Z,18.20
2022-07-29T00:57:12.211Z,18.20
2022-07-29T01:00:13.975Z,18.20
2022-07-29T01:03:10.836Z,18.10
2022-07-29T01:06:07.766Z,18.10
2022-07-29T01:09:04.930Z,18.10
2022-07-29T01:12:02.924Z,18.00
2022-07-29T01:15:01.868Z,17.90
2022-07-29T01:18:22.213Z,17.90
2022-07-29T01:21:58.559Z,17.90
2022-07-29T01:25:33.909Z,18.00
2022-07-29T01:28:55.578Z,18.10
2022-07-29T01:32:28.051Z,18.10
2022-07-29T01:35:54.440Z,18.10
2022-07-29T01:39:08.161Z,18.00
2022-07-29T01:42:28.851Z,18.00
2022-07-29T01:45:42.816Z,18.10
2022-07-29T01:48:53.945Z,18.10
2022-07-29T01:51:58.469Z,18.00
2022-07-29T01:54:59.738Z,18.00
2022-07-29T01:57:58.589Z,17.90
2022-07-29T02:00:58.260Z,17.90
2022-07-29T02:03:58.179Z,17.90
2022-07-29T02:06:57.972Z,17.80
2022-07-29T02:09:56.835Z,17.70
2022-07-29T02:12:57.400Z,17.70
2022-07-29T02:15:56.916Z,17.60
2022-07-29T02:18:56.651Z,17.50
2022-07-29T02:21:55.751Z,17.50
2022-07-29T02:24:54.059Z,17.60
2022-07-29T02:27:52.336Z,17.60
2022-07-29T02:30:52.007Z,17.50
2022-07-29T02:33:50.712Z,17.60
2022-07-29T02:36:49.517Z,17.60
2022-07-29T02:39:49.769Z,17.60
2022-07-29T02:42:48.179Z,17.50
2022-07-29T02:45:48.270Z,17.60
2022-07-29T02:49:29.250Z,17.50
2022-07-29T02:52:35.793Z,17.50
2022-07-29T02:55:45.823Z,17.40
2022-07-29T02:58:50.517Z,17.30
2022-07-29T03:01:47.977Z,17.30
2022-07-29T03:04:47.032Z,17.20
2022-07-29T03:07:50.418Z,17.20
2022-07-29T03:10:48.552Z,17.20
2022-07-29T03:13:45.910Z,17.10
2022-07-29T03:16:43.184Z,17.10
2022-07-29T03:19:40.543Z,17.10
2022-07-29T03:22:47.943Z,16.90
2022-07-29T03:25:44.979Z,17.00
2022-07-29T03:28:41.968Z,16.80
2022-07-29T03:31:38.975Z,16.70
2022-07-29T03:34:40.501Z,16.70
2022-07-29T03:37:37.622Z,16.80
2022-07-29T03:40:50.763Z,16.80
2022-07-29T03:43:50.570Z,16.80
2022-07-29T03:46:49.668Z,16.70
2022-07-29T03:49:49.558Z,16.90
2022-07-29T03:52:47.659Z,17.10
2022-07-29T03:55:49.123Z,16.90
2022-07-29T03:58:46.222Z,17.00
2022-07-29T04:01:44.715Z,16.70
2022-07-29T04:04:41.782Z,16.80
2022-07-29T04:07:38.664Z,16.70
2022-07-29T04:10:36.065Z,16.60
2022-07-29T04:13:33.802Z,16.50
2022-07-29T04:16:30.827Z,16.50
2022-07-29T04:19:27.863Z,16.50
2022-07-29T04:22:24.707Z,16.50
2022-07-29T04:25:22.082Z,16.60
2022-07-29T04:28:18.909Z,16.60
2022-07-29T04:31:15.828Z,16.50
2022-07-29T04:34:14.012Z,16.80
2022-07-29T04:37:11.062Z,16.70
2022-07-29T04:40:08.617Z,16.60
2022-07-29T04:43:05.703Z,16.60
2022-07-29T04:46:04.778Z,16.60
2022-07-29T04:49:01.750Z,16.50
2022-07-29T04:51:58.982Z,16.60
2022-07-29T04:54:55.878Z,16.70
2022-07-29T04:57:52.702Z,16.70
2022-07-29T05:00:49.612Z,16.50
2022-07-29T05:03:46.609Z,16.60
2022-07-29T05:06:43.446Z,16.70
2022-07-29T05:09:40.300Z,16.60
2022-07-29T05:12:37.258Z,16.70
2022-07-29T05:15:36.026Z,16.60
2022-07-29T05:18:32.881Z,16.60
2022-07-29T05:21:29.728Z,16.70
2022-07-29T05:24:26.900Z,16.80
2022-07-29T05:27:23.750Z,16.90
2022-07-29T05:30:21.278Z,16.90
2022-07-29T05:33:35.975Z,17.00
2022-07-29T05:36:33.794Z,17.00
2022-07-29T05:39:46.587Z,16.90
2022-07-29T05:42:45.071Z,16.90
2022-07-29T05:45:49.963Z,17.00
2022-07-29T05:48:47.392Z,17.10
2022-07-29T05:51:44.280Z,17.10
2022-07-29T05:54:41.206Z,17.20
2022-07-29T05:57:38.048Z,17.30
2022-07-29T06:00:35.345Z,17.40
2022-07-29T06:03:32.213Z,17.30
2022-07-29T06:06:29.080Z,17.30
2022-07-29T06:09:26.909Z,17.40
2022-07-29T06:12:24.386Z,17.40
2022-07-29T06:15:21.259Z,17.50
2022-07-29T06:18:18.182Z,17.50
2022-07-29T06:21:15.104Z,17.60
2022-07-29T06:24:16.467Z,17.60
2022-07-29T06:27:13.591Z,17.70
2022-07-29T06:30:10.968Z,17.80
2022-07-29T06:33:08.059Z,17.90
2022-07-29T06:36:06.752Z,17.90
2022-07-29T06:39:08.420Z,18.00
2022-07-29T06:42:06.138Z,18.00
2022-07-29T06:45:08.994Z,18.10
2022-07-29T06:48:06.433Z,18.20
2022-07-29T06:51:05.346Z,18.40
2022-07-29T06:54:03.734Z,18.60
2022-07-29T06:57:00.804Z,18.80
2022-07-29T06:59:57.991Z,19.10
2022-07-29T07:02:54.896Z,19.20
2022-07-29T07:05:54.757Z,19.20
2022-07-29T07:08:51.600Z,19.30
2022-07-29T07:11:49.487Z,19.50
2022-07-29T07:14:47.027Z,19.50
2022-07-29T07:17:43.961Z,19.60
2022-07-29T07:20:40.993Z,19.60
2022-07-29T07:23:38.133Z,19.70
2022-07-29T07:26:34.975Z,19.80
2022-07-29T07:29:31.814Z,19.90
2022-07-29T07:32:28.668Z,19.90
2022-07-29T07:35:25.516Z,20.00
2022-07-29T07:38:22.365Z,20.00
2022-07-29T07:41:19.192Z,20.10
2022-07-29T07:44:16.357Z,20.30
2022-07-29T07:47:13.665Z,20.40
2022-07-29T07:50:18.493Z,20.50
2022-07-29T07:53:16.015Z,20.60
2022-07-29T07:56:13.220Z,20.70
2022-07-29T07:59:10.082Z,20.70
2022-07-29T08:02:10.259Z,20.80
2022-07-29T08:05:12.647Z,20.90
2022-07-29T08:08:09.850Z,21.00
2022-07-29T08:11:09.743Z,21.10
2022-07-29T08:14:06.876Z,21.40
2022-07-29T08:17:04.269Z,21.50
2022-07-29T08:20:01.083Z,21.60
2022-07-29T08:22:57.920Z,21.80
2022-07-29T08:25:54.988Z,21.90
2022-07-29T08:28:51.898Z,22.20
2022-07-29T08:31:48.840Z,22.30
2022-07-29T08:34:47.135Z,22.60
2022-07-29T08:37:43.979Z,22.80
2022-07-29T08:40:40.843Z,23.20
2022-07-29T08:43:39.098Z,23.60
2022-07-29T08:46:40.015Z,23.70
2022-07-29T08:49:37.091Z,23.70
2022-07-29T08:52:38.765Z,23.80
2022-07-29T08:55:35.915Z,24.30
2022-07-29T08:58:37.047Z,24.60
2022-07-29T09:01:42.915Z,24.70
2022-07-29T09:04:42.548Z,24.60
2022-07-29T09:07:40.907Z,24.90
2022-07-29T09:10:37.918Z,25.30
2022-07-29T09:13:35.415Z,25.40
2022-07-29T09:16:55.337Z,25.40
2022-07-29T09:19:53.334Z,25.50
2022-07-29T09:22:54.084Z,25.60
2022-07-29T09:25:50.975Z,25.90
2022-07-29T09:28:47.806Z,26.30
2022-07-29T09:31:50.741Z,26.30
2022-07-29T09:34:47.892Z,26.60
2022-07-29T09:37:45.827Z,26.40
2022-07-29T09:40:56.640Z,26.40
2022-07-29T09:43:57.875Z,26.50
2022-07-29T09:47:07.051Z,26.60
2022-07-29T09:50:04.436Z,26.30
2022-07-29T09:53:01.252Z,26.30
2022-07-29T09:55:58.327Z,26.50
2022-07-29T09:59:08.249Z,25.80
2022-07-29T10:02:17.724Z,25.40
2022-07-29T10:05:36.710Z,25.20
2022-07-29T10:08:33.852Z,25.80
2022-07-29T10:11:36.529Z,25.80
2022-07-29T10:14:46.281Z,25.80
2022-07-29T10:17:43.792Z,25.90
2022-07-29T10:20:41.396Z,25.50
2022-07-29T10:23:46.154Z,25.20
2022-07-29T10:26:45.647Z,25.00
2022-07-29T10:29:42.691Z,25.10
2022-07-29T10:33:19.273Z,25.00
2022-07-29T10:36:34.561Z,24.50
2022-07-29T10:40:01.823Z,24.30
2022-07-29T10:43:15.891Z,24.40
2022-07-29T10:46:14.455Z,24.30
2022-07-29T10:49:24.726Z,24.10
2022-07-29T10:52:26.637Z,23.90
2022-07-29T10:55:43.420Z,24.10
2022-07-29T10:58:41.083Z,24.20
2022-07-29T11:01:39.290Z,23.90
2022-07-29T11:04:45.258Z,23.50
2022-07-29T11:08:20.287Z,23.20
2022-07-29T11:11:22.242Z,23.10
2022-07-29T11:14:45.195Z,23.10
2022-07-29T11:18:05.299Z,23.10
2022-07-29T11:21:02.286Z,23.00
2022-07-29T11:24:28.857Z,23.00
2022-07-29T11:27:32.773Z,22.90
2022-07-29T11:30:56.064Z,23.10
2022-07-29T11:33:55.742Z,23.20
2022-07-29T11:37:10.040Z,23.00
2022-07-29T11:40:08.046Z,22.60
2022-07-29T11:43:07.220Z,22.30
2022-07-29T11:46:04.457Z,22.50
2022-07-29T11:49:03.257Z,22.60
2022-07-29T11:52:06.377Z,22.80
2022-07-29T11:55:09.671Z,22.80
2022-07-29T11:58:07.011Z,22.70
2022-07-29T12:01:05.072Z,22.80
2022-07-29T12:04:09.261Z,23.30
2022-07-29T12:10:11.653Z,23.60
2022-07-29T12:13:22.181Z,23.60
2022-07-29T12:16:25.375Z,24.00
2022-07-29T12:19:27.678Z,24.70
2022-07-29T12:22:38.139Z,25.90
2022-07-29T12:25:38.072Z,26.50
2022-07-29T12:28:39.562Z,27.10
2022-07-29T12:31:44.170Z,27.50
2022-07-29T12:34:42.416Z,26.70
2022-07-29T12:37:42.666Z,26.60
2022-07-29T12:40:39.725Z,26.60
2022-07-29T12:43:36.729Z,27.00
2022-07-29T12:46:33.833Z,27.00
2022-07-29T12:49:30.758Z,27.10
2022-07-29T12:52:35.756Z,27.40
2022-07-29T12:55:45.233Z,27.90
2022-07-29T13:01:42.339Z,27.30
2022-07-29T13:04:39.361Z,26.90
2022-07-29T13:07:54.559Z,27.20
2022-07-29T13:10:53.867Z,27.60
2022-07-29T13:14:03.092Z,27.00
2022-07-29T13:17:28.305Z,27.00
2022-07-29T13:20:31.037Z,26.80
2022-07-29T13:23:27.925Z,27.90
2022-07-29T13:26:24.782Z,28.10
2022-07-29T13:29:21.645Z,27.20
2022-07-29T13:32:28.258Z,27.00
2022-07-29T13:35:25.859Z,27.10
2022-07-29T13:38:22.726Z,27.10
2022-07-29T13:41:28.097Z,26.90
2022-07-29T13:44:25.487Z,27.50
2022-07-29T13:47:32.680Z,27.20
2022-07-29T13:50:30.213Z,27.40
2022-07-29T13:53:28.774Z,27.30
2022-07-29T13:56:25.651Z,26.80
2022-07-29T13:59:22.531Z,26.90
2022-07-29T14:02:19.520Z,26.70
2022-07-29T14:05:16.492Z,26.70
2022-07-29T14:08:13.353Z,27.30
2022-07-29T14:11:13.309Z,27.20
2022-07-29T14:14:11.269Z,27.30
2022-07-29T14:17:10.854Z,27.60
2022-07-29T14:20:08.181Z,28.10
2022-07-29T14:23:05.030Z,28.20
2022-07-29T14:26:02.282Z,28.10
2022-07-29T14:28:59.510Z,28.00
2022-07-29T14:31:56.681Z,27.70
2022-07-29T14:34:53.708Z,27.70
2022-07-29T14:37:50.781Z,27.40
2022-07-29T14:40:47.753Z,27.60
2022-07-29T14:43:47.729Z,27.80
2022-07-29T14:46:44.887Z,28.20
2022-07-29T14:49:45.364Z,28.50
2022-07-29T14:52:42.266Z,28.70
2022-07-29T14:55:40.352Z,29.00
2022-07-29T14:58:37.338Z,28.90
2022-07-29T15:01:45.899Z,28.70
2022-07-29T15:04:42.721Z,28.10
2022-07-29T15:07:39.643Z,28.20
2022-07-29T15:10:36.509Z,28.10
2022-07-29T15:13:34.724Z,27.90
2022-07-29T15:16:31.627Z,27.70
2022-07-29T15:19:28.927Z,28.10
2022-07-29T15:22:26.031Z,28.30
2022-07-29T15:25:24.553Z,28.30
2022-07-29T15:28:22.587Z,28.30
2022-07-29T15:31:22.221Z,28.60
2022-07-29T15:34:21.389Z,28.40
2022-07-29T15:37:18.494Z,28.10
2022-07-29T15:40:15.682Z,28.00
2022-07-29T15:43:12.891Z,28.90
2022-07-29T15:46:31.705Z,28.50
2022-07-29T15:49:47.607Z,28.60
2022-07-29T15:52:47.009Z,28.30
2022-07-29T15:55:44.560Z,28.00
2022-07-29T15:58:41.578Z,27.80
2022-07-29T16:01:38.554Z,28.30
2022-07-29T16:04:39.694Z,28.30
2022-07-29T16:07:37.786Z,27.80
2022-07-29T16:10:34.871Z,28.00
2022-07-29T16:13:32.137Z,27.80
2022-07-29T16:16:29.047Z,27.50
2022-07-29T16:19:25.915Z,27.30
2022-07-29T16:22:22.755Z,27.50
2022-07-29T16:25:19.651Z,27.20
2022-07-29T16:28:17.205Z,26.60
2022-07-29T16:31:14.734Z,27.20
2022-07-29T16:34:11.585Z,26.60
2022-07-29T16:37:08.435Z,26.20
2022-07-29T16:40:11.406Z,26.10
2022-07-29T16:43:08.831Z,26.30
2022-07-29T16:46:09.436Z,26.30
2022-07-29T16:49:10.950Z,26.00
2022-07-29T16:52:08.034Z,25.80
2022-07-29T16:55:05.794Z,25.50
2022-07-29T16:58:03.223Z,25.30
2022-07-29T17:01:00.551Z,24.80
2022-07-29T17:04:06.421Z,24.50
2022-07-29T17:07:03.516Z,24.70
2022-07-29T17:10:03.988Z,24.50
2022-07-29T17:13:01.119Z,24.60
2022-07-29T17:16:00.661Z,24.40
2022-07-29T17:18:57.888Z,23.80
2022-07-29T17:22:03.313Z,24.10
2022-07-29T17:25:04.737Z,23.20
2022-07-29T17:28:01.714Z,21.90
2022-07-29T17:30:58.623Z,21.20
2022-07-29T17:33:59.821Z,20.70
2022-07-29T17:36:57.510Z,20.50
2022-07-29T17:39:58.626Z,20.20
2022-07-29T17:42:57.339Z,20.30
2022-07-29T17:45:56.863Z,20.40
2022-07-29T17:48:57.422Z,20.30
2022-07-29T17:51:57.653Z,20.20
2022-07-29T17:54:57.553Z,20.30
2022-07-29T17:57:58.360Z,19.80
2022-07-29T18:00:56.983Z,19.70
2022-07-29T18:03:57.197Z,20.50
2022-07-29T18:06:56.868Z,20.60
2022-07-29T18:09:56.363Z,19.80
2022-07-29T18:12:56.958Z,19.70
2022-07-29T18:15:58.696Z,19.50
2022-07-29T18:18:57.080Z,19.60
2022-07-29T18:21:55.211Z,19.50
2022-07-29T18:24:53.468Z,19.20
2022-07-29T18:27:50.718Z,19.10
2022-07-29T18:30:48.096Z,19.10
2022-07-29T18:33:44.929Z,19.40
2022-07-29T18:36:41.771Z,19.60
2022-07-29T18:39:38.611Z,19.60
2022-07-29T18:42:35.498Z,19.70
2022-07-29T18:45:32.795Z,19.30
2022-07-29T18:48:31.523Z,19.20
2022-07-29T18:51:28.442Z,19.40
2022-07-29T18:54:25.348Z,19.20
2022-07-29T18:57:55.368Z,18.90
2022-07-29T19:00:39.131Z,18.80
2022-07-29T19:03:35.984Z,18.80
2022-07-29T19:06:32.878Z,18.90
2022-07-29T19:09:30.141Z,19.20
2022-07-29T19:12:27.310Z,19.10
2022-07-29T19:15:24.246Z,19.00
2022-07-29T19:18:21.071Z,19.00
2022-07-29T19:21:17.995Z,19.20
2022-07-29T19:24:15.772Z,19.30
2022-07-29T19:27:12.998Z,19.30
2022-07-29T19:30:10.383Z,19.20
2022-07-29T19:33:07.340Z,19.10
2022-07-29T19:36:04.456Z,19.20
2022-07-29T19:39:01.289Z,19.10
2022-07-29T19:42:02.919Z,19.20
2022-07-29T19:45:00.267Z,18.90
2022-07-29T19:48:01.272Z,18.80
2022-07-29T19:50:58.685Z,18.80
2022-07-29T19:53:55.512Z,18.90
2022-07-29T19:56:52.434Z,18.50
2022-07-29T19:59:49.397Z,18.60
2022-07-29T20:02:46.689Z,18.50
2022-07-29T20:05:43.714Z,18.30
2022-07-29T20:08:45.364Z,18.20
2022-07-29T20:11:42.201Z,18.20
2022-07-29T20:14:39.117Z,17.90
2022-07-29T20:17:39.421Z,17.80
2022-07-29T20:20:36.911Z,18.00
2022-07-29T20:23:33.818Z,17.90
2022-07-29T20:26:31.192Z,17.80
2022-07-29T20:29:28.036Z,17.60
2022-07-29T20:32:24.867Z,17.50
2022-07-29T20:35:22.437Z,17.50
2022-07-29T20:38:19.318Z,17.50
2022-07-29T20:41:16.167Z,17.50
2022-07-29T20:44:14.916Z,17.60
2022-07-29T20:47:11.874Z,17.50
2022-07-29T20:50:10.078Z,17.60
2022-07-29T20:53:06.923Z,17.50
2022-07-29T20:56:04.053Z,17.50
2022-07-29T20:59:00.984Z,17.40
2022-07-29T21:01:57.937Z,17.50
2022-07-29T21:04:54.810Z,17.40
2022-07-29T21:07:54.368Z,17.30
2022-07-29T21:10:54.726Z,17.30
2022-07-29T21:13:51.903Z,17.40
2022-07-29T21:16:50.181Z,17.40
2022-07-29T21:19:47.226Z,17.40
2022-07-29T21:22:45.040Z,17.50
2022-07-29T21:25:41.881Z,17.50
2022-07-29T21:28:40.569Z,17.20
2022-07-29T21:31:37.391Z,17.10
2022-07-29T21:34:34.275Z,17.30
2022-07-29T21:37:31.230Z,17.40
2022-07-29T21:40:28.136Z,17.20
2022-07-29T21:43:26.653Z,17.20
2022-07-29T21:46:24.443Z,17.10
2022-07-29T21:49:21.534Z,17.10
2022-07-29T21:52:18.602Z,17.00
2022-07-29T21:55:15.487Z,17.10
2022-07-29T21:58:15.567Z,16.90
2022-07-29T22:01:12.446Z,17.00
2022-07-29T22:04:09.340Z,17.00
2022-07-29T22:07:06.203Z,16.90
2022-07-29T22:10:03.581Z,16.80
2022-07-29T22:13:01.746Z,16.80
2022-07-29T22:15:58.562Z,16.80
2022-07-29T22:18:55.391Z,16.90
2022-07-29T22:21:52.206Z,17.00
2022-07-29T22:24:49.075Z,16.90
2022-07-29T22:27:45.996Z,16.90
2022-07-29T22:30:42.881Z,16.90
2022-07-29T22:33:39.788Z,17.00
2022-07-29T22:36:36.627Z,16.90
2022-07-29T22:39:33.466Z,17.00
2022-07-29T22:42:30.426Z,16.90
2022-07-29T22:45:27.238Z,17.00
2022-07-29T22:48:24.070Z,17.10
2022-07-29T22:51:21.017Z,17.00
2022-07-29T22:54:18.072Z,17.00
2022-07-29T22:57:14.901Z,16.90
2022-07-29T23:00:13.499Z,16.90
2022-07-29T23:03:10.338Z,17.00
2022-07-29T23:06:07.399Z,17.00
2022-07-29T23:09:04.500Z,16.80
2022-07-29T23:12:01.428Z,16.90
2022-07-29T23:14:58.290Z,16.80
2022-07-29T23:17:55.204Z,16.80
2022-07-29T23:20:52.074Z,16.70
2022-07-29T23:23:49.458Z,16.80
2022-07-29T23:26:46.318Z,16.80
2022-07-29T23:29:43.129Z,16.70
2022-07-29T23:32:39.996Z,17.10
2022-07-29T23:35:36.820Z,17.10
2022-07-29T23:38:33.676Z,16.80
2022-07-29T23:41:31.428Z,16.80
2022-07-29T23:44:28.300Z,16.60
2022-07-29T23:47:25.147Z,16.60
2022-07-29T23:50:21.984Z,16.40
2022-07-29T23:53:18.838Z,16.40
2022-07-29T23:56:15.741Z,16.50
2022-07-29T23:59:12.585Z,16.70
